Time;durP1;ratioP1;P1;durP2;ratioP2;P2;SDS_P1;SDS_P2;PMS_P1;PMS_P2;Temp;Humidity;BMP_temperature;BMP_pressure;BME280_temperature;BME280_humidity;BME280_pressure;Samples;Min_cycle;Max_cycle;Signal;HPM_P1;HPM_P2
2023/11/27 00:02:11;;;;;;;0.88;0.80;;;;;;;0.30;45.54;92185.00;4928747;29;20501;-77
2023/11/27 00:04:37;;;;;;;1.08;0.80;;;;;;;0.29;46.23;92182.66;4929451;29;20042;-77
2023/11/27 00:07:03;;;;;;;0.80;0.60;;;;;;;0.25;46.94;92184.13;4930632;29;20511;-78
2023/11/27 00:09:28;;;;;;;1.00;0.93;;;;;;;0.20;46.52;92177.91;4931954;29;20043;-77
2023/11/27 00:11:54;;;;;;;0.70;0.70;;;;;;;0.16;46.31;92181.94;4933001;29;20051;-78
2023/11/27 00:14:19;;;;;;;0.70;0.70;;;;;;;0.14;45.89;92170.31;4935890;29;20378;-77
2023/11/27 00:16:45;;;;;;;0.60;0.60;;;;;;;0.14;46.40;92172.88;4912411;29;20318;-78
2023/11/27 00:19:11;;;;;;;0.90;0.88;;;;;;;0.09;45.93;92165.84;4919854;29;20524;-77
2023/11/27 00:21:38;;;;;;;1.15;0.88;;;;;;;0.11;46.13;92168.19;4913461;29;20066;-77
2023/11/27 00:24:04;;;;;;;0.70;0.70;;;;;;;0.10;46.74;92169.97;4912613;29;20623;-77
2023/11/27 00:26:30;;;;;;;0.95;0.85;;;;;;;0.09;46.31;92154.75;4921377;29;20094;-78
2023/11/27 00:28:56;;;;;;;0.65;0.60;;;;;;;0.09;46.86;92160.69;4916246;29;20044;-77
2023/11/27 00:31:22;;;;;;;0.57;0.57;;;;;;;0.07;46.91;92147.28;4931203;29;20042;-77
2023/11/27 00:33:48;;;;;;;0.60;0.60;;;;;;;0.08;46.46;92151.41;4935458;29;20063;-77
2023/11/27 00:36:14;;;;;;;0.60;0.60;;;;;;;0.10;46.67;92151.19;4918029;29;20078;-77
2023/11/27 00:38:40;;;;;;;0.55;0.55;;;;;;;0.09;46.87;92155.56;4935511;29;20050;-77
2023/11/27 00:41:06;;;;;;;1.10;0.80;;;;;;;0.09;45.66;92158.13;4927153;29;20499;-77
2023/11/27 00:43:33;;;;;;;0.68;0.68;;;;;;;0.07;45.53;92149.03;4918545;29;20066;-77
2023/11/27 00:45:59;;;;;;;0.80;0.80;;;;;;;0.07;46.14;92152.44;4914211;29;20079;-77
2023/11/27 00:48:26;;;;;;;0.80;0.80;;;;;;;0.03;45.38;92143.59;4889246;29;20135;-78
2023/11/27 00:50:52;;;;;;;0.90;0.70;;;;;;;0.07;46.11;92152.44;4905916;29;20177;-77
2023/11/27 00:53:18;;;;;;;0.68;0.68;;;;;;;0.07;46.03;92147.28;4920472;29;20031;-77
2023/11/27 00:55:44;;;;;;;0.80;0.80;;;;;;;0.06;45.06;92140.56;4909134;29;20044;-77
2023/11/27 00:58:10;;;;;;;0.70;0.70;;;;;;;0.07;45.63;92143.91;4907809;29;20040;-77
2023/11/27 01:00:36;;;;;;;0.57;0.57;;;;;;;0.04;46.00;92137.41;4909728;29;20628;-77
2023/11/27 01:03:02;;;;;;;0.75;0.73;;;;;;;0.03;46.04;92138.44;4892311;29;20131;-77
2023/11/27 01:05:28;;;;;;;0.65;0.65;;;;;;;0.02;45.76;92143.81;4907562;29;20043;-78
2023/11/27 01:07:53;;;;;;;0.70;0.70;;;;;;;0.00;46.23;92146.63;4918321;29;20115;-77
2023/11/27 01:10:19;;;;;;;1.13;1.00;;;;;;;0.00;45.37;92141.50;4915267;29;20048;-77
2023/11/27 01:12:45;;;;;;;0.70;0.70;;;;;;;0.00;44.42;92144.06;4920810;29;20431;-77
2023/11/27 01:15:11;;;;;;;0.80;0.60;;;;;;;0.04;44.73;92150.28;4915496;29;20043;-77
2023/11/27 01:17:38;;;;;;;0.82;0.82;;;;;;;0.06;45.26;92150.84;4902864;29;20037;-77
2023/11/27 01:20:09;;;;;;;0.70;0.70;;;;;;;0.09;45.78;92147.84;4904132;29;20071;-77
2023/11/27 01:22:36;;;;;;;1.35;1.00;;;;;;;0.11;45.69;92150.97;4898304;29;20040;-78
2023/11/27 01:25:04;;;;;;;1.25;0.85;;;;;;;0.13;45.99;92148.13;4915060;29;20510;-77
2023/11/27 01:27:31;;;;;;;0.80;0.80;;;;;;;0.13;46.16;92141.19;4917305;29;20424;-77
2023/11/27 01:29:57;;;;;;;0.80;0.73;;;;;;;0.16;45.93;92148.47;4909578;29;20441;-77
2023/11/27 01:32:24;;;;;;;1.05;0.77;;;;;;;0.17;45.51;92142.28;4914366;29;20036;-78
2023/11/27 01:34:51;;;;;;;0.63;0.63;;;;;;;0.20;45.39;92141.84;4911279;29;20082;-78
2023/11/27 01:37:18;;;;;;;0.70;0.70;;;;;;;0.24;44.73;92144.72;4912490;29;20043;-77
2023/11/27 01:39:44;;;;;;;1.33;0.70;;;;;;;0.27;43.77;92146.06;4907766;29;20036;-77
2023/11/27 01:42:10;;;;;;;0.68;0.68;;;;;;;0.26;43.93;92131.63;4908020;29;20095;-77
2023/11/27 01:44:36;;;;;;;0.60;0.60;;;;;;;0.27;44.15;92136.56;4908423;29;20069;-77
2023/11/27 01:47:03;;;;;;;0.60;0.60;;;;;;;0.25;43.84;92133.44;4933017;29;20411;-78
2023/11/27 01:49:29;;;;;;;0.70;0.60;;;;;;;0.17;43.93;92126.84;4929552;29;20087;-77
2023/11/27 01:51:57;;;;;;;0.60;0.60;;;;;;;0.15;44.38;92134.03;4930250;29;20353;-78
2023/11/27 01:54:23;;;;;;;0.50;0.50;;;;;;;0.12;44.47;92128.56;4928029;29;20092;-77
2023/11/27 01:56:50;;;;;;;0.63;0.63;;;;;;;0.08;45.83;92138.53;4911012;29;20035;-77
2023/11/27 01:59:17;;;;;;;0.70;0.70;;;;;;;0.05;45.24;92128.72;4923278;29;20043;-77
2023/11/27 02:01:43;;;;;;;0.88;0.70;;;;;;;0.04;45.45;92121.97;4915164;29;20037;-77
2023/11/27 02:04:09;;;;;;;1.10;0.75;;;;;;;0.03;44.68;92119.66;4915040;29;20023;-78
2023/11/27 02:06:35;;;;;;;2.35;0.93;;;;;;;-0.01;44.95;92121.91;4906571;29;20146;-77
2023/11/27 02:09:00;;;;;;;0.80;0.80;;;;;;;-0.01;44.99;92124.47;4911640;29;20504;-77
2023/11/27 02:11:26;;;;;;;0.57;0.57;;;;;;;-0.05;45.04;92124.13;4899897;29;20028;-77
2023/11/27 02:13:52;;;;;;;1.02;0.60;;;;;;;-0.10;45.42;92123.28;4915633;29;20538;-78
2023/11/27 02:16:18;;;;;;;0.60;0.60;;;;;;;-0.13;45.67;92121.94;4906503;29;20040;-77
2023/11/27 02:18:44;;;;;;;0.70;0.70;;;;;;;-0.14;44.17;92129.88;4913922;29;20032;-77
2023/11/27 02:21:11;;;;;;;0.68;0.68;;;;;;;-0.18;44.41;92134.72;4917098;29;20042;-78
2023/11/27 02:23:37;;;;;;;0.70;0.70;;;;;;;-0.21;44.56;92130.78;4933162;29;20059;-77
2023/11/27 02:26:04;;;;;;;0.63;0.63;;;;;;;-0.24;45.03;92126.13;4916946;29;20071;-77
2023/11/27 02:28:29;;;;;;;0.60;0.60;;;;;;;-0.24;45.11;92127.91;4929355;29;20048;-77
2023/11/27 02:30:55;;;;;;;0.75;0.75;;;;;;;-0.26;45.36;92125.56;4930680;29;20529;-77
2023/11/27 02:33:21;;;;;;;0.85;0.70;;;;;;;-0.27;45.84;92118.88;4926599;29;20098;-77
2023/11/27 02:35:48;;;;;;;0.82;0.70;;;;;;;-0.29;45.00;92120.88;4916695;29;20051;-77
2023/11/27 02:38:15;;;;;;;0.60;0.60;;;;;;;-0.30;44.72;92114.16;4930443;29;20563;-77
2023/11/27 02:40:40;;;;;;;0.70;0.70;;;;;;;-0.30;44.11;92110.81;4916356;29;20062;-78
2023/11/27 02:43:06;;;;;;;0.75;0.75;;;;;;;-0.32;44.88;92107.69;4915611;29;20063;-77
2023/11/27 02:45:35;;;;;;;0.70;0.70;;;;;;;-0.35;45.11;92098.63;4933384;29;20060;-77
2023/11/27 02:48:01;;;;;;;0.65;0.65;;;;;;;-0.34;45.78;92104.56;4917264;29;20106;-77
2023/11/27 02:50:27;;;;;;;0.70;0.70;;;;;;;-0.33;45.67;92098.44;4917048;29;20516;-77
2023/11/27 02:52:53;;;;;;;0.82;0.80;;;;;;;-0.36;45.20;92091.94;4916278;29;20075;-77
2023/11/27 02:55:19;;;;;;;0.70;0.70;;;;;;;-0.39;46.64;92089.03;4939642;29;20039;-77
2023/11/27 02:57:46;;;;;;;0.73;0.73;;;;;;;-0.41;46.57;92094.41;4916730;29;20106;-77
2023/11/27 03:00:12;;;;;;;1.00;0.80;;;;;;;-0.45;47.07;92088.16;4933732;29;20036;-77
2023/11/27 03:02:38;;;;;;;1.00;0.80;;;;;;;-0.44;47.66;92087.16;4932966;29;20086;-78
2023/11/27 03:05:07;;;;;;;1.00;0.90;;;;;;;-0.46;47.58;92094.31;4931322;29;20047;-77
2023/11/27 03:07:34;;;;;;;0.80;0.80;;;;;;;-0.49;47.54;92087.84;4916624;29;20122;-77
2023/11/27 03:10:01;;;;;;;0.80;0.80;;;;;;;-0.53;48.82;92091.88;4900915;29;20589;-77
2023/11/27 03:12:27;;;;;;;1.60;0.88;;;;;;;-0.53;48.76;92088.53;4933143;29;20071;-77
2023/11/27 03:14:52;;;;;;;0.70;0.70;;;;;;;-0.53;47.68;92085.94;4925873;29;20493;-77
2023/11/27 03:17:21;;;;;;;0.85;0.80;;;;;;;-0.58;47.36;92076.34;4929802;29;20555;-78
2023/11/27 03:19:47;;;;;;;0.95;0.77;;;;;;;-0.51;47.15;92083.94;4921781;29;20119;-77
2023/11/27 03:22:13;;;;;;;0.77;0.77;;;;;;;-0.52;46.89;92077.22;4925313;29;20087;-77
2023/11/27 03:24:39;;;;;;;0.80;0.80;;;;;;;-0.50;48.09;92075.19;4925554;29;20032;-78
2023/11/27 03:27:05;;;;;;;2.03;1.10;;;;;;;-0.54;48.33;92068.94;4933443;29;20479;-78
2023/11/27 03:29:33;;;;;;;0.80;0.80;;;;;;;-0.56;48.57;92070.97;4916180;29;20040;-77
2023/11/27 03:32:00;;;;;;;0.75;0.75;;;;;;;-0.56;48.59;92070.97;4915833;29;20024;-78
2023/11/27 03:34:25;;;;;;;0.70;0.70;;;;;;;-0.57;49.33;92075.34;4916335;29;20159;-77
2023/11/27 03:36:51;;;;;;;0.70;0.70;;;;;;;-0.55;49.06;92068.16;4915613;29;20044;-77
2023/11/27 03:39:17;;;;;;;0.95;0.85;;;;;;;-0.54;50.02;92064.59;4925764;29;20035;-77
2023/11/27 03:41:42;;;;;;;1.05;0.95;;;;;;;-0.54;49.74;92058.66;4915544;29;20044;-77
2023/11/27 03:44:08;;;;;;;0.80;0.80;;;;;;;-0.57;49.57;92051.41;4931941;29;20040;-77
2023/11/27 03:46:34;;;;;;;0.68;0.68;;;;;;;-0.54;48.44;92046.63;4927156;29;20056;-77
2023/11/27 03:49:01;;;;;;;0.85;0.85;;;;;;;-0.53;48.25;92044.81;4930455;29;20050;-78
2023/11/27 03:51:26;;;;;;;0.60;0.60;;;;;;;-0.52;48.58;92047.16;4932563;29;20039;-77
2023/11/27 03:53:52;;;;;;;0.88;0.88;;;;;;;-0.51;49.10;92047.94;4933193;29;20024;-77
2023/11/27 03:56:18;;;;;;;0.80;0.80;;;;;;;-0.53;49.62;92044.81;4932180;29;20513;-77
2023/11/27 03:58:43;;;;;;;0.80;0.80;;;;;;;-0.52;49.63;92049.75;4915594;29;20063;-77
2023/11/27 04:01:13;;;;;;;0.68;0.68;;;;;;;-0.53;50.66;92050.72;4922683;29;20039;-77
2023/11/27 04:03:39;;;;;;;1.00;0.82;;;;;;;-0.55;51.24;92052.75;4921244;29;20040;-77
2023/11/27 04:06:07;;;;;;;0.80;0.80;;;;;;;-0.56;50.70;92050.41;4915153;29;20340;-77
2023/11/27 04:08:33;;;;;;;1.05;0.77;;;;;;;-0.58;50.17;92050.66;4939858;29;20051;-77
2023/11/27 04:10:59;;;;;;;0.70;0.70;;;;;;;-0.61;49.75;92051.09;4932671;29;20035;-77
2023/11/27 04:13:24;;;;;;;0.93;0.75;;;;;;;-0.61;50.10;92048.50;4932996;29;20496;-77
2023/11/27 04:15:51;;;;;;;0.80;0.80;;;;;;;-0.60;49.81;92049.31;4912641;29;20028;-77
2023/11/27 04:18:17;;;;;;;0.80;0.80;;;;;;;-0.60;49.31;92049.31;4907985;29;20036;-77
2023/11/27 04:20:44;;;;;;;1.48;1.05;;;;;;;-0.59;48.35;92043.91;4932679;29;20051;-77
2023/11/27 04:23:10;;;;;;;1.00;0.85;;;;;;;-0.60;48.24;92041.59;4912794;29;20550;-77
2023/11/27 04:25:36;;;;;;;0.60;0.60;;;;;;;-0.57;47.98;92038.56;4912021;29;20048;-77
2023/11/27 04:28:01;;;;;;;0.75;0.75;;;;;;;-0.57;48.69;92036.00;4930483;29;20047;-77
2023/11/27 04:30:27;;;;;;;1.00;0.90;;;;;;;-0.59;48.27;92038.78;4927230;29;20404;-77
2023/11/27 04:32:53;;;;;;;0.60;0.60;;;;;;;-0.63;48.49;92041.03;4913790;29;20048;-77
2023/11/27 04:35:19;;;;;;;0.70;0.70;;;;;;;-0.65;47.47;92034.56;4933063;29;20048;-77
2023/11/27 04:37:44;;;;;;;0.60;0.60;;;;;;;-0.68;46.90;92028.06;4933084;29;20095;-77
2023/11/27 04:40:14;;;;;;;0.80;0.77;;;;;;;-0.69;47.85;92034.25;4929049;29;20070;-77
2023/11/27 04:42:40;;;;;;;1.20;0.77;;;;;;;-0.73;47.72;92033.13;4927627;29;20503;-77
2023/11/27 04:45:09;;;;;;;0.73;0.70;;;;;;;-0.76;46.74;92025.09;4922564;29;20043;-77
2023/11/27 04:47:35;;;;;;;0.80;0.80;;;;;;;-0.80;46.64;92021.44;4922063;29;20035;-77
2023/11/27 04:50:02;;;;;;;0.70;0.70;;;;;;;-0.76;46.94;92025.88;4923095;29;20496;-77
2023/11/27 04:52:29;;;;;;;0.50;0.50;;;;;;;-0.81;46.36;92023.22;4924338;29;20067;-77
2023/11/27 04:54:55;;;;;;;0.77;0.77;;;;;;;-0.79;46.56;92026.31;4932574;29;20032;-77
2023/11/27 04:57:21;;;;;;;0.70;0.70;;;;;;;-0.81;47.36;92017.28;4918511;29;20531;-77
2023/11/27 04:59:47;;;;;;;0.60;0.60;;;;;;;-0.87;47.09;92019.75;4935649;29;20250;-77
2023/11/27 05:02:15;;;;;;;0.80;0.80;;;;;;;-0.86;46.97;92021.34;4934859;29;20039;-77
2023/11/27 05:04:41;;;;;;;1.13;0.80;;;;;;;-0.88;47.26;92022.53;4935113;29;20110;-77
2023/11/27 05:07:07;;;;;;;0.70;0.70;;;;;;;-0.85;47.59;92028.03;4916121;29;20044;-77
2023/11/27 05:09:33;;;;;;;1.13;0.90;;;;;;;-0.88;47.20;92025.91;4928410;29;20598;-77
2023/11/27 05:11:59;;;;;;;0.80;0.80;;;;;;;-0.88;46.84;92019.97;4917274;29;20075;-77
2023/11/27 05:14:24;;;;;;;0.80;0.80;;;;;;;-0.87;46.80;92024.13;4930963;29;20413;-77
2023/11/27 05:16:52;;;;;;;0.70;0.70;;;;;;;-0.87;46.48;92024.91;4923989;29;20071;-77
2023/11/27 05:19:18;;;;;;;0.60;0.60;;;;;;;-0.87;45.98;92024.13;4910089;29;20392;-77
2023/11/27 05:21:44;;;;;;;0.90;0.90;;;;;;;-0.90;47.17;92025.38;4928496;29;20066;-77
2023/11/27 05:24:10;;;;;;;0.65;0.65;;;;;;;-0.89;47.12;92021.78;4929081;29;20044;-77
2023/11/27 05:26:35;;;;;;;0.70;0.70;;;;;;;-0.89;47.18;92023.56;4942197;29;20076;-77
2023/11/27 05:29:01;;;;;;;0.85;0.85;;;;;;;-0.91;47.44;92012.72;4933582;29;20044;-77
2023/11/27 05:31:27;;;;;;;0.80;0.80;;;;;;;-0.89;48.43;92016.63;4927885;29;20558;-77
2023/11/27 05:33:52;;;;;;;0.80;0.80;;;;;;;-0.94;48.20;92013.97;4934763;29;20063;-77
2023/11/27 05:36:18;;;;;;;0.75;0.75;;;;;;;-0.89;48.81;92021.00;4927049;29;20024;-77
2023/11/27 05:38:44;;;;;;;0.70;0.70;;;;;;;-0.90;49.30;92019.41;4893883;29;20099;-77
2023/11/27 05:41:12;;;;;;;0.80;0.80;;;;;;;-0.89;49.13;92010.72;4915705;29;20459;-78
2023/11/27 05:43:38;;;;;;;0.85;0.80;;;;;;;-0.90;49.11;92016.84;4910110;29;20040;-77
2023/11/27 05:46:04;;;;;;;0.80;0.80;;;;;;;-0.91;47.42;92010.16;4934528;29;20060;-78
2023/11/27 05:48:30;;;;;;;0.98;0.88;;;;;;;-0.91;47.12;92008.38;4931597;29;20509;-78
2023/11/27 05:50:56;;;;;;;0.95;0.70;;;;;;;-0.92;47.17;92013.75;4936943;29;20036;-77
2023/11/27 05:53:22;;;;;;;0.82;0.80;;;;;;;-0.92;48.02;92011.19;4934051;29;20404;-77
2023/11/27 05:55:52;;;;;;;0.77;0.73;;;;;;;-0.94;47.84;92010.63;4931929;29;20039;-78
2023/11/27 05:58:19;;;;;;;0.85;0.80;;;;;;;-0.99;48.85;92011.31;4936291;29;20031;-77
2023/11/27 06:00:44;;;;;;;1.02;0.93;;;;;;;-1.02;48.15;92010.97;4938015;29;20059;-78
2023/11/27 06:03:10;;;;;;;0.80;0.80;;;;;;;-1.07;48.72;92012.44;4927288;29;20448;-76
2023/11/27 06:05:36;;;;;;;1.00;0.90;;;;;;;-1.07;48.46;92012.44;4918194;29;20043;-77
2023/11/27 06:08:02;;;;;;;1.10;1.00;;;;;;;-1.06;48.43;92010.63;4931355;29;20070;-76
2023/11/27 06:10:29;;;;;;;0.85;0.80;;;;;;;-1.05;49.09;92005.28;4934006;29;20039;-77
2023/11/27 06:12:55;;;;;;;0.80;0.80;;;;;;;-1.06;47.89;92014.00;4915959;29;20471;-78
2023/11/27 06:15:21;;;;;;;2.20;0.80;;;;;;;-1.03;48.06;92004.28;4917149;29;20059;-77
2023/11/27 06:17:46;;;;;;;1.20;1.10;;;;;;;-1.02;47.69;92000.69;4933497;29;20364;-78
2023/11/27 06:20:15;;;;;;;1.95;1.38;;;;;;;-0.96;47.35;92007.50;4935312;29;20040;-77
2023/11/27 06:22:41;;;;;;;1.48;1.20;;;;;;;-1.00;48.42;91996.13;4933508;29;20176;-78
2023/11/27 06:25:08;;;;;;;2.20;1.40;;;;;;;-1.00;47.86;92003.81;4933822;29;20058;-78
2023/11/27 06:27:34;;;;;;;1.05;0.90;;;;;;;-0.98;47.97;92012.09;4935365;29;20396;-78
2023/11/27 06:30:00;;;;;;;0.90;0.80;;;;;;;-1.00;48.65;92003.81;4893669;29;20039;-78
2023/11/27 06:32:26;;;;;;;0.80;0.80;;;;;;;-1.02;48.92;92005.84;4934461;29;20039;-78
2023/11/27 06:34:52;;;;;;;0.88;0.88;;;;;;;-1.07;50.11;91999.59;4917458;29;20082;-78
2023/11/27 06:37:17;;;;;;;0.80;0.80;;;;;;;-1.03;50.76;92001.72;4915900;29;20039;-78
2023/11/27 06:39:43;;;;;;;0.82;0.82;;;;;;;-1.06;49.56;92003.72;4934437;29;20043;-78
2023/11/27 06:42:12;;;;;;;0.77;0.77;;;;;;;-1.09;50.29;91993.88;4932727;29;20042;-78
2023/11/27 06:44:39;;;;;;;0.75;0.75;;;;;;;-1.08;49.62;91998.03;4915061;29;20118;-78
2023/11/27 06:47:04;;;;;;;0.70;0.70;;;;;;;-1.06;50.20;91995.22;4951028;29;20074;-78
2023/11/27 06:49:30;;;;;;;0.80;0.80;;;;;;;-1.05;50.61;91991.66;4946356;29;20080;-78
2023/11/27 06:51:56;;;;;;;1.23;0.93;;;;;;;-1.02;50.37;91998.13;4935195;29;20027;-79
2023/11/27 06:54:21;;;;;;;1.08;0.85;;;;;;;-0.99;50.37;91989.94;4956225;28;20087;-79
2023/11/27 06:56:47;;;;;;;0.85;0.85;;;;;;;-0.98;49.89;91981.25;4947500;29;20035;-80
2023/11/27 06:59:13;;;;;;;0.82;0.80;;;;;;;-0.84;49.54;91991.03;4958289;28;20511;-79
2023/11/27 07:01:41;;;;;;;0.70;0.70;;;;;;;-0.73;49.24;91989.44;4954682;28;20044;-79
2023/11/27 07:04:07;;;;;;;0.80;0.80;;;;;;;-0.50;48.69;91987.78;4938014;29;20260;-80
2023/11/27 07:06:35;;;;;;;0.77;0.77;;;;;;;0.35;45.62;91986.06;4952015;28;20536;-79
2023/11/27 07:09:04;;;;;;;0.70;0.70;;;;;;;1.41;43.27;91985.03;4955205;28;20047;-79
2023/11/27 07:11:34;;;;;;;1.02;0.80;;;;;;;2.41;40.72;91980.25;4938727;29;20050;-79
2023/11/27 07:14:01;;;;;;;0.70;0.70;;;;;;;3.41;37.90;91979.44;4947767;28;20036;-79
2023/11/27 07:16:28;;;;;;;1.08;0.82;;;;;;;4.46;36.33;91980.06;4935657;29;20038;-79
2023/11/27 07:18:55;;;;;;;0.50;0.50;;;;;;;5.41;34.07;91979.34;4950457;28;20043;-80
2023/11/27 07:21:20;;;;;;;0.70;0.70;;;;;;;6.24;32.74;91976.03;4938261;29;20507;-81
2023/11/27 07:23:46;;;;;;;0.95;0.80;;;;;;;7.27;31.56;91978.47;4936813;29;20059;-79
2023/11/27 07:26:12;;;;;;;0.75;0.70;;;;;;;7.74;30.57;91975.31;4941979;28;20052;-79
2023/11/27 07:28:40;;;;;;;0.60;0.60;;;;;;;8.36;29.13;91976.00;4945394;29;20046;-80
2023/11/27 07:31:07;;;;;;;0.68;0.68;;;;;;;9.16;27.59;91972.34;4954967;29;20031;-80
2023/11/27 07:33:34;;;;;;;0.82;0.80;;;;;;;9.74;27.93;91980.66;4957383;28;20039;-80
2023/11/27 07:35:59;;;;;;;1.85;1.13;;;;;;;8.24;27.29;91973.03;4949056;28;20070;-79
2023/11/27 07:38:25;;;;;;;3.40;1.52;;;;;;;8.16;27.89;91968.50;4955359;28;20071;-80
2023/11/27 07:40:52;;;;;;;1.15;1.00;;;;;;;7.96;28.02;91978.13;4951514;28;20472;-80
2023/11/27 07:43:18;;;;;;;0.82;0.82;;;;;;;7.50;29.02;91976.13;4946631;29;20031;-80
2023/11/27 07:45:44;;;;;;;1.42;1.20;;;;;;;7.36;29.65;91978.63;4953815;29;20051;-79
2023/11/27 07:48:09;;;;;;;1.83;1.30;;;;;;;6.95;30.13;91978.28;4953704;29;20046;-78
2023/11/27 07:50:36;;;;;;;1.70;1.27;;;;;;;7.83;29.53;91974.38;4953410;28;20126;-78
2023/11/27 07:53:03;;;;;;;0.93;0.90;;;;;;;7.21;29.30;91973.59;4953661;29;20487;-82
2023/11/27 07:55:29;;;;;;;0.70;0.70;;;;;;;6.60;29.85;91975.75;4953947;29;20039;-79
2023/11/27 07:57:54;;;;;;;1.17;0.80;;;;;;;6.18;31.67;91978.94;4953562;28;20090;-80
2023/11/27 08:00:20;;;;;;;1.35;1.00;;;;;;;6.16;32.33;91976.59;4931545;29;20090;-79
2023/11/27 08:02:47;;;;;;;1.13;0.75;;;;;;;5.90;33.55;91986.38;4953010;29;20312;-78
2023/11/27 08:05:15;;;;;;;0.70;0.60;;;;;;;5.68;34.46;91980.78;4936226;29;20051;-78
2023/11/27 08:07:40;;;;;;;1.05;0.80;;;;;;;6.08;35.18;91973.81;4935750;29;20038;-78
2023/11/27 08:10:08;;;;;;;1.20;0.85;;;;;;;7.14;34.03;91973.94;4952244;28;20182;-79
2023/11/27 08:12:36;;;;;;;1.17;0.88;;;;;;;8.87;30.91;91964.78;4947523;29;20055;-80
2023/11/27 08:15:06;;;;;;;0.70;0.70;;;;;;;10.27;27.38;91971.41;4944110;29;20035;-79
2023/11/27 08:17:33;;;;;;;1.00;0.90;;;;;;;11.74;25.34;91968.81;4953853;28;20042;-79
2023/11/27 08:20:00;;;;;;;0.80;0.80;;;;;;;13.44;24.05;91970.44;4935819;29;20114;-80
2023/11/27 08:22:25;;;;;;;1.10;0.80;;;;;;;14.61;23.09;91975.13;4952317;29;20047;-81
2023/11/27 08:24:52;;;;;;;0.98;0.80;;;;;;;14.46;22.11;91973.09;4953100;29;20602;-81
2023/11/27 08:27:20;;;;;;;1.20;0.77;;;;;;;15.11;22.64;91971.59;4950358;28;20389;-81
2023/11/27 08:29:47;;;;;;;1.88;0.82;;;;;;;15.85;21.52;91969.06;4918491;29;20172;-80
2023/11/27 08:32:13;;;;;;;0.77;0.70;;;;;;;15.01;21.14;91971.22;4953564;29;20048;-80
2023/11/27 08:34:38;;;;;;;0.50;0.50;;;;;;;14.47;22.36;91975.38;4935250;29;20031;-82
2023/11/27 08:37:06;;;;;;;0.63;0.63;;;;;;;14.79;21.68;91965.22;4951274;29;20110;-80
2023/11/27 08:39:32;;;;;;;0.70;0.70;;;;;;;13.71;22.42;91965.78;4924219;29;20381;-79
2023/11/27 08:41:57;;;;;;;0.73;0.68;;;;;;;14.26;21.71;91959.59;4958733;29;20086;-81
2023/11/27 08:44:23;;;;;;;1.10;0.60;;;;;;;13.64;21.96;91965.53;4954666;29;20035;-81
2023/11/27 08:46:49;;;;;;;0.50;0.50;;;;;;;12.92;22.90;91960.03;4939738;29;20278;-80
2023/11/27 08:49:14;;;;;;;0.60;0.50;;;;;;;11.40;24.68;91959.75;4946960;29;20058;-80
2023/11/27 08:51:47;;;;;;;0.77;0.65;;;;;;;11.00;24.84;91946.66;4947986;28;20313;-79
2023/11/27 08:54:12;;;;;;;0.60;0.60;;;;;;;10.68;24.53;91954.81;4957096;29;20071;-79
2023/11/27 08:56:41;;;;;;;1.88;0.90;;;;;;;11.60;27.35;91955.81;4956741;29;20192;-79
2023/11/27 08:59:07;;;;;;;2.00;1.00;;;;;;;11.38;28.48;91946.19;4951443;28;20027;-79
2023/11/27 09:01:33;;;;;;;1.92;1.10;;;;;;;10.08;29.21;91948.81;4938129;29;20051;-79
2023/11/27 09:03:59;;;;;;;1.25;0.90;;;;;;;9.88;30.88;91939.56;4941371;28;20092;-80
2023/11/27 09:06:24;;;;;;;1.13;1.00;;;;;;;8.97;30.61;91948.16;4964337;28;20078;-80
2023/11/27 09:08:50;;;;;;;2.03;1.20;;;;;;;9.00;32.05;91949.41;4957008;29;20081;-79
2023/11/27 09:11:16;;;;;;;1.23;0.90;;;;;;;9.48;32.50;91941.97;4939455;29;20074;-80
2023/11/27 09:13:41;;;;;;;1.42;0.90;;;;;;;9.68;31.44;91950.44;4948682;29;20522;-80
2023/11/27 09:16:08;;;;;;;0.70;0.70;;;;;;;8.66;32.92;91947.91;4939463;29;20139;-78
2023/11/27 09:18:34;;;;;;;1.27;0.98;;;;;;;8.54;34.11;91946.53;4938443;29;20411;-78
2023/11/27 09:20:59;;;;;;;1.67;1.00;;;;;;;8.16;34.34;91945.03;4956757;29;20038;-78
2023/11/27 09:23:25;;;;;;;0.95;0.88;;;;;;;8.62;33.62;91936.50;4956820;29;20035;-79
2023/11/27 09:25:51;;;;;;;1.83;1.10;;;;;;;8.72;34.42;91937.09;4954678;28;20078;-78
2023/11/27 09:28:17;;;;;;;1.08;0.90;;;;;;;8.83;34.14;91936.94;4957838;28;20035;-78
2023/11/27 09:30:42;;;;;;;1.02;0.85;;;;;;;8.63;35.60;91935.44;4938720;29;20468;-79
2023/11/27 09:33:08;;;;;;;1.85;1.20;;;;;;;8.06;36.24;91930.28;4972251;28;20450;-79
2023/11/27 09:35:33;;;;;;;1.83;1.17;;;;;;;7.84;37.47;91934.25;4960350;28;20063;-78
2023/11/27 09:38:00;;;;;;;1.13;0.90;;;;;;;7.70;38.59;91939.41;4958116;28;20034;-78
2023/11/27 09:40:29;;;;;;;1.05;0.90;;;;;;;7.22;37.04;91936.88;4951720;29;20063;-78
2023/11/27 09:42:55;;;;;;;1.23;0.90;;;;;;;7.07;38.21;91931.84;4942748;29;20063;-79
2023/11/27 09:45:21;;;;;;;2.65;0.95;;;;;;;6.81;38.50;91924.31;4956543;29;20051;-79
2023/11/27 09:47:50;;;;;;;1.40;1.00;;;;;;;6.86;39.60;91918.25;4957301;29;20035;-79
2023/11/27 09:50:18;;;;;;;3.20;1.08;;;;;;;6.86;39.29;91915.66;4944451;29;20435;-79
2023/11/27 09:52:53;;;;;;;1.88;1.00;;;;;;;6.87;38.39;91912.78;4953078;29;20035;-79
2023/11/27 09:55:20;;;;;;;1.10;0.90;;;;;;;6.91;38.43;91909.63;4946526;29;20396;-79
2023/11/27 09:57:48;;;;;;;0.98;0.70;;;;;;;6.82;35.95;91912.84;4949383;29;20031;-78
2023/11/27 10:00:17;;;;;;;0.70;0.70;;;;;;;6.67;33.79;91908.56;4946547;29;20182;-78
2023/11/27 10:02:47;;;;;;;0.60;0.60;;;;;;;6.78;32.77;91906.66;4935556;29;20086;-78
2023/11/27 10:05:18;;;;;;;0.65;0.63;;;;;;;6.99;31.29;91898.63;4937172;29;20480;-79
2023/11/27 10:07:54;;;;;;;1.00;0.70;;;;;;;7.02;31.33;91887.66;4952716;29;20050;-78
2023/11/27 10:10:27;;;;;;;0.57;0.57;;;;;;;7.03;31.11;91881.41;4936217;29;20043;-80
2023/11/27 10:12:59;;;;;;;0.65;0.65;;;;;;;7.47;30.22;91877.72;4954257;29;20043;-79
2023/11/27 10:15:28;;;;;;;0.70;0.70;;;;;;;8.02;30.55;91870.16;4954044;29;20120;-80
2023/11/27 10:17:59;;;;;;;1.55;1.08;;;;;;;8.55;33.59;91866.44;4935755;29;20039;-79
2023/11/27 10:20:26;;;;;;;1.75;1.25;;;;;;;8.36;36.55;91856.03;4954238;28;20039;-80
2023/11/27 10:22:52;;;;;;;2.30;1.13;;;;;;;7.90;40.20;91860.19;4958869;28;20527;-79
2023/11/27 10:25:20;;;;;;;1.60;1.10;;;;;;;7.21;41.18;91848.66;4930696;29;20070;-79
2023/11/27 10:27:55;;;;;;;1.88;1.20;;;;;;;6.89;42.32;91852.69;4955553;29;20031;-81
2023/11/27 10:30:24;;;;;;;7.95;1.30;;;;;;;7.25;42.06;91840.00;4946557;29;20107;-80
2023/11/27 10:32:54;;;;;;;1.45;1.00;;;;;;;7.56;40.88;91839.56;4936258;29;20127;-79
2023/11/27 10:35:23;;;;;;;1.55;0.88;;;;;;;7.02;41.48;91836.38;4944645;29;20036;-80
2023/11/27 10:37:49;;;;;;;2.22;1.10;;;;;;;7.47;39.79;91841.25;4954733;28;20035;-80
2023/11/27 10:40:17;;;;;;;1.85;1.00;;;;;;;7.84;37.31;91837.84;4953810;28;20048;-80
2023/11/27 10:42:47;;;;;;;1.00;0.85;;;;;;;8.24;34.25;91838.25;4947844;29;20051;-79
2023/11/27 10:45:23;;;;;;;1.70;1.08;;;;;;;8.72;35.58;91832.72;4953766;29;20052;-81
2023/11/27 10:47:51;;;;;;;4.13;0.98;;;;;;;8.73;34.18;91826.44;4942959;29;20046;-79
2023/11/27 10:50:18;;;;;;;1.90;1.00;;;;;;;8.83;35.43;91829.94;4954851;28;20027;-81
2023/11/27 10:52:48;;;;;;;1.38;1.00;;;;;;;8.83;35.36;91822.88;4957089;28;20045;-79
2023/11/27 10:55:18;;;;;;;2.65;0.88;;;;;;;8.92;32.81;91820.34;4953387;29;20067;-80
2023/11/27 10:57:48;;;;;;;1.23;0.93;;;;;;;8.48;36.65;91813.88;4954495;29;20063;-79
2023/11/27 11:00:29;;;;;;;1.80;0.90;;;;;;;8.28;34.11;91809.75;4956227;28;20042;-80
2023/11/27 11:03:00;;;;;;;0.93;0.77;;;;;;;8.60;35.07;91802.94;4949099;28;20035;-79
2023/11/27 11:05:35;;;;;;;1.23;0.85;;;;;;;8.30;35.83;91792.75;4936459;29;20038;-80
2023/11/27 11:08:03;;;;;;;2.42;0.95;;;;;;;7.93;36.88;91796.28;4952309;28;20135;-79
2023/11/27 11:10:31;;;;;;;1.67;0.90;;;;;;;7.86;36.87;91785.47;4948403;29;20035;-77
2023/11/27 11:13:00;;;;;;;2.70;1.13;;;;;;;7.90;36.62;91778.59;4928618;29;20050;-80
2023/11/27 11:15:44;;;;;;;1.58;1.00;;;;;;;7.66;34.63;91771.69;4952783;28;20194;-80
2023/11/27 11:18:35;;;;;;;1.80;1.15;;;;;;;8.06;36.99;91773.88;4953091;29;20547;-80
2023/11/27 11:21:00;;;;;;;1.90;1.10;;;;;;;7.79;37.10;91769.41;4936367;29;20046;-79
2023/11/27 11:23:38;;;;;;;1.38;0.88;;;;;;;7.85;36.06;91769.03;4936899;29;20047;-80
2023/11/27 11:26:28;;;;;;;2.25;1.02;;;;;;;7.42;34.48;91761.38;4937924;29;20075;-79
2023/11/27 11:29:14;;;;;;;1.40;0.80;;;;;;;7.22;34.80;91761.69;4945038;28;20039;-79
2023/11/27 11:31:57;;;;;;;1.33;0.90;;;;;;;7.15;35.42;91756.06;4957092;28;20050;-79
2023/11/27 11:34:24;;;;;;;0.88;0.63;;;;;;;7.77;30.82;91753.28;4951275;28;20122;-79
2023/11/27 11:37:00;;;;;;;1.15;0.80;;;;;;;8.20;29.79;91745.25;4953461;29;20035;-79